Elkhart County 4-H Fair Parade 5,000 Road Run

Age Group Results

July 26, 2015


Results By Time to Run www.timetorun.net Timetorun.net

5K

Female Open Winners

Place Name City Bib No Age Overall Time Back Chip Time Gun Time Pace
1 Laura Gillette Goshen IN 2388 30 17   20:09.41 20:09.41 6:30/M
 

Female 12 and under

Place Name City Bib No Age Overall Time Back Chip Time Gun Time Pace
1 Hannah Fenwick Three Rivers MI 2364 12 175   30:56.97 30:56.97 9:59/M
2 Chynzie Howell Goshen IN 2630 10 218 1:46.68 32:43.65 32:43.65 10:33/M
3 Lydia Nisen Goshen IN 2497 11 248 3:34.87 34:31.84 34:31.84 11:08/M
4 Lily McEachern Elkhart IN 2473 8 250 3:43.39 34:40.36 34:40.36 11:11/M
5 Riley McEachern Elkhart IN 2475 12 260 4:29.50 35:26.47 35:26.47 11:26/M
6 Cadence Mast Goshen IN 2464 11 264 4:54.68 35:51.65 35:51.65 11:34/M
7 Mia McEachern Elkhart IN 2474 10 268 5:03.66 36:00.63 36:00.63 11:37/M
8 Kiara Jaberg Millersburg IN 2430 6 293 7:24.12 38:21.09 38:21.09 12:22/M
9 Shalom Boomershine Goshen IN 2312 6 314 14:51.19 45:48.16 45:48.16 14:46/M
 

Female 13 to 15

Place Name City Bib No Age Overall Time Back Chip Time Gun Time Pace
1 Erica Stutsman Goshen IN 2550 15 68   26:42.58 26:42.58 8:37/M
2 Meghan Cawood Middlebury IN 2651 15 86 0:58.84 27:41.42 27:41.42 8:56/M
3 Hanna Durbin Bistol IN 2634 15 107 1:41.77 28:24.35 28:24.35 9:10/M
4 Regan Landis Elkhart IN 2441 14 115 2:02.75 28:45.33 28:45.33 9:16/M
5 Jenna Miller Goshen IN 2485 15 118 2:10.44 28:53.02 28:53.02 9:19/M
6 Jenna Bradberry Goshen IN 2316 14 119 2:10.45 28:53.03 28:53.03 9:19/M
7 Fiona Yeakey Goshen IN 2572 14 151 3:25.87 30:08.45 30:08.45 9:43/M
8 Kayleigh McKee Goshen IN 2478 14 155 3:30.34 30:12.92 30:12.92 9:45/M
9 Paola Rangel Goshen IN 2515 14 159 3:38.35 30:20.93 30:20.93 9:47/M
10 Maggie Gallagher Goshen IN 2378 14 178 4:18.34 31:00.92 31:00.92 10:00/M
11 Madison Rittenhouse Goshen IN 2518 14 179 4:18.43 31:01.01 31:01.01 10:00/M
12 Karla Gonzalez Goshen IN 2394 14 231 7:01.04 33:43.62 33:43.62 10:53/M
13 Emily Yoder Syracuse IN 2577 13 259 8:42.47 35:25.05 35:25.05 11:25/M
14 Abby Lee Elkhart IN 2446 15 303 14:36.97 41:19.55 41:19.55 13:20/M
15 Vanessa Lopez Goshen IN 2454 13 311 17:58.18 44:40.76 44:40.76 14:25/M
 

Female 16 to 18

Place Name City Bib No Age Overall Time Back Chip Time Gun Time Pace
1 Ada Wingard Topeka IN 2568 18 21   20:16.84 20:16.84 6:32/M
2 Kayla Casaletto Goshen IN 2331 18 22 0:01.11 20:17.95 20:17.95 6:33/M
3 Amber Smith Middlebury IN 2538 17 85 7:24.41 27:41.25 27:41.25 8:56/M
4 Mckenzie Love Goshen IN 2639 16 106 8:05.62 28:22.46 28:22.46 9:09/M
5 Beatriz Castillo Goshen IN 2618 18 111 8:18.14 28:34.98 28:34.98 9:13/M
6 Vanessa Steiner Elkhart IN 2595 17 114 8:28.36 28:45.20 28:45.20 9:16/M
7 Anna Nisen Goshen IN 2496 17 116 8:28.51 28:45.35 28:45.35 9:16/M
8 Kirsten Graves Goshen IN 2401 16 120 8:47.89 29:04.73 29:04.73 9:23/M
9 Jamie McBride Elkhart IN 2469 18 132 9:08.49 29:25.33 29:25.33 9:29/M
10 Hannah Yeakey Goshen IN 2573 16 150 9:51.60 30:08.44 30:08.44 9:43/M
11 Morgan Blyly Middlebury IN 2653 18 164 10:20.29 30:37.13 30:37.13 9:53/M
12 Megan Campbell Middlebury IN 2328 17 165 10:20.36 30:37.20 30:37.20 9:53/M
13 Nora Rangel Goshen IN 2514 17 169 10:25.03 30:41.87 30:41.87 9:54/M
14 Sarah Stump Nappanee IN 2549 17 181 10:51.59 31:08.43 31:08.43 10:03/M
15 Tricia Place Goshen IN 2632 18 188 11:11.67 31:28.51 31:28.51 10:09/M
16 Deisy Lopez Bristol IN 2453 16 213 12:16.80 32:33.64 32:33.64 10:30/M
17 Nicole Wilhelm Goshen IN 2565 17 215 12:23.41 32:40.25 32:40.25 10:32/M
18 Heather Johnson Goshen IN 2431 18 216 12:23.48 32:40.32 32:40.32 10:32/M
19 Mackenzie Bobeck Millersburg IN 2602 16 228 13:04.91 33:21.75 33:21.75 10:45/M
20 Taylor Stidham Millersburg IN 2547 18 239 13:47.22 34:04.06 34:04.06 10:59/M
21 Libby Smith Goshen IN 2623 17 255 14:43.06 34:59.90 34:59.90 11:17/M
22 Kaylee Hettinger Goshen IN 2415 16 261 15:10.94 35:27.78 35:27.78 11:26/M
23 Jacque Fernandez Goshen IN 2367 17 271 16:09.46 36:26.30 36:26.30 11:45/M
24 Kimberly Grounds Goshen IN 2403 18 272 16:09.62 36:26.46 36:26.46 11:45/M
25 Annelise Wiebe Goshen IN 2596 17 273 16:09.67 36:26.51 36:26.51 11:45/M
26 Briseida Huesca Goshen IN 2425 17 312 24:24.04 44:40.88 44:40.88 14:25/M
 

Female 19 to 24

Place Name City Bib No Age Overall Time Back Chip Time Gun Time Pace
1 Rachel Weeber Goshen IN 2563 23 40   21:23.21 21:23.21 6:54/M
2 Karla Madrigal Elkhart IN 2461 24 45 0:08.16 21:31.37 21:31.37 6:56/M
3 Joy Gerig Elkhart IN 2387 21 156 8:50.10 30:13.31 30:13.31 9:45/M
4 Yohana Romero Elkhart IN 2594 21 158 8:55.61 30:18.82 30:18.82 9:46/M
5 Sarah Sark Millersburg IN 2525 20 186 9:59.31 31:22.52 31:22.52 10:07/M
6 Jenna Landis Elkhart IN 2440 19 195 10:15.05 31:38.26 31:38.26 10:12/M
7 Rachel Zentz Goshen IN 2589 21 220 11:22.30 32:45.51 32:45.51 10:34/M
8 Jenna Dreier Goshen IN 2354 23 223 11:31.60 32:54.81 32:54.81 10:37/M
9 Jessica Gannon Muncie IN 2381 21 233 12:21.45 33:44.66 33:44.66 10:53/M
10 Estrella Vizueth Columbia City IN 2646 23 242 12:57.57 34:20.78 34:20.78 11:05/M
11 Rheana Roose Goshen IN 2520 20 245 13:01.43 34:24.64 34:24.64 11:06/M
12 Rebekah Zentz Goshen IN 2590 23 281 15:52.61 37:15.82 37:15.82 12:01/M
13 Marissa Lehman Elkhart IN 2448 21 286 16:15.51 37:38.72 37:38.72 12:08/M
14 Allison Culp Nappanee IN 2626 22 296 17:22.79 38:46.00 38:46.00 12:30/M
15 Chiloe Truex Elkhart IN 2554 22 298 17:30.05 38:53.26 38:53.26 12:33/M
16 Mindi Fisher Bristol IN 2369 24 301 18:47.05 40:10.26 40:10.26 12:57/M
 

Female 25 to 29

Place Name City Bib No Age Overall Time Back Chip Time Gun Time Pace
1 Jennifer Williams Wolcottville IN 2599 27 37   21:12.68 21:12.68 6:50/M
2 Jessica Evans Bristol IN 2362 29 128 8:07.54 29:20.22 29:20.22 9:28/M
3 Brittni Huser New Paris IN 2428 28 141 8:35.54 29:48.22 29:48.22 9:37/M
4 Maria Garcia Goshen IN 2385 28 196 10:25.61 31:38.29 31:38.29 10:12/M
5 Courtney Bowers Goshen IN 2315 25 197 10:28.90 31:41.58 31:41.58 10:13/M
6 Ashlee Haviland Indianapolis IN 2409 29 203 10:57.69 32:10.37 32:10.37 10:23/M
7 Kayla Johnson Elkhart 2432 27 208 11:06.40 32:19.08 32:19.08 10:25/M
8 Andrea Seedorff Goshen IN 2532 29 212 11:19.86 32:32.54 32:32.54 10:30/M
9 Danielle Gannon Fort Wayne IN 2380 25 257 13:50.21 35:02.89 35:02.89 11:18/M
10 Ashley McMillen Goshen IN 2480 27 274 15:15.47 36:28.15 36:28.15 11:46/M
11 Ashley Graber Goshen IN 2398 29 277 15:25.07 36:37.75 36:37.75 11:49/M
12 Stephanie Loucks Elkhart IN 2455 26 284 16:23.75 37:36.43 37:36.43 12:08/M
13 Katherine Houghtaling Wallingford CT 2424 26 305 20:30.37 41:43.05 41:43.05 13:27/M
 

Female 30 to 34

Place Name City Bib No Age Overall Time Back Chip Time Gun Time Pace
1 Elizabeth O'Dea Mishawaka IN 2502 30 67   26:37.28 26:37.28 8:35/M
2 Katrina Kaeser Sunnyside NY 2597 34 109 1:54.32 28:31.60 28:31.60 9:12/M
3 Erica Reyenga Indianapolis IN 2516 31 121 2:27.55 29:04.83 29:04.83 9:23/M
4 Jamie Cooper Middlebury 2342 34 185 4:43.20 31:20.48 31:20.48 10:06/M
5 Kate Miller Elkhart IN 2486 32 206 5:39.01 32:16.29 32:16.29 10:25/M
6 Sarah Glick Goshen IN 2391 33 207 5:39.97 32:17.25 32:17.25 10:25/M
7 Keri Mitschelen Nappanee IN 2491 31 246 7:47.91 34:25.19 34:25.19 11:06/M
8 Brooke Yoder Goshen IN 2575 32 265 9:15.09 35:52.37 35:52.37 11:34/M
9 Julie Kilmer Goshen IN 2437 32 276 10:00.44 36:37.72 36:37.72 11:49/M
10 Amanda Apple New Paris IN 2305 31 285 10:59.17 37:36.45 37:36.45 12:08/M
11 Gretchen Clauser Bloomfield CT 2337 31 306 15:06.16 41:43.44 41:43.44 13:27/M
 

Female 35 to 39

Place Name City Bib No Age Overall Time Back Chip Time Gun Time Pace
1 Jaime Stacy Goshen IN 2544 37 125   29:12.03 29:12.03 9:25/M
2 Kristi Osterday Goshen IN 2506 39 154 0:59.39 30:11.42 30:11.42 9:44/M
3 Kimberly Harringer Elkhart IN 2407 39 157 1:01.79 30:13.82 30:13.82 9:45/M
4 Julia Herschberger Goshen IN 2411 36 172 1:39.44 30:51.47 30:51.47 9:57/M
5 Jess Elliott Goshen IN 2361 38 173 1:42.98 30:55.01 30:55.01 9:58/M
6 Sandra Miller Goshen IN 2615 38 209 3:09.06 32:21.09 32:21.09 10:26/M
7 Emily Woodring Goshen IN 2643 36 244 5:11.05 34:23.08 34:23.08 11:05/M
8 Elizabeth McEachern Elkhart IN 2472 38 269 6:48.98 36:01.01 36:01.01 11:37/M
9 Nikki Grueser Nappanee IN 2628 38 297 9:34.13 38:46.16 38:46.16 12:30/M
10 Sherry Angle Elkhart IN 2304 37 302 11:58.81 41:10.84 41:10.84 13:17/M
 

Female 40 to 44

Place Name City Bib No Age Overall Time Back Chip Time Gun Time Pace
1 Maria Brown Goshen IN 2321 44 199   31:54.14 31:54.14 10:17/M
2 Olga Ramirez Goshen IN 2513 40 227 1:22.05 33:16.19 33:16.19 10:44/M
3 Ann Burleson Elkhart IN 2323 44 234 1:53.25 33:47.39 33:47.39 10:54/M
4 Kris Camp Goshen IN 2326 40 243 2:27.17 34:21.31 34:21.31 11:05/M
5 Anna Ducharme Elkhart IN 2356 41 252 2:58.26 34:52.40 34:52.40 11:15/M
6 Michelle Oyer 2481 44 278 4:46.62 36:40.76 36:40.76 11:50/M
7 Katrina Godzisz Elkhart IN 2392 44 289 5:52.09 37:46.23 37:46.23 12:11/M
8 Lorinda Brew Millersburg IN 2317 43 308 11:11.46 43:05.60 43:05.60 13:54/M
 

Female 45 to 49

Place Name City Bib No Age Overall Time Back Chip Time Gun Time Pace
1 Yuko Baumann Goshen IN 2308 46 95   27:53.97 27:53.97 9:00/M
2 Leanne McKee Goshen IN 2479 45 145 2:05.46 29:59.43 29:59.43 9:40/M
3 Tina Sharkey Goshen IN 2533 48 198 3:53.38 31:47.35 31:47.35 10:15/M
4 Caryn Howell Goshen IN 2631 47 232 5:50.40 33:44.37 33:44.37 10:53/M
5 Lara Perry Goshen IN 2508 45 283 9:25.98 37:19.95 37:19.95 12:02/M
6 Lori Haney Goshen IN 2624 48 287 9:44.76 37:38.73 37:38.73 12:08/M
7 Lynn Bauman Goshen IN 2307 46 290 9:55.06 37:49.03 37:49.03 12:12/M
8 Stephanie Weaver Goshen IN 2562 45 309 15:51.12 43:45.09 43:45.09 14:07/M
 

Female 50 to 54

Place Name City Bib No Age Overall Time Back Chip Time Gun Time Pace
1 Corinne Coppotelli Goshen IN 2343 53 122   29:05.91 29:05.91 9:23/M
2 Rosalie McBride Elkhart IN 2470 50 177 1:53.44 30:59.35 30:59.35 10:00/M
3 Lisa Heinz Goshen IN 2645 54 205 3:07.96 32:13.87 32:13.87 10:24/M
4 Kendra Dull Goshen IN 2358 50 295 9:22.10 38:28.01 38:28.01 12:25/M
 

Female 55 to 59

Place Name City Bib No Age Overall Time Back Chip Time Gun Time Pace
1 Cindy Nicely Elkhart IN 2494 56 163   30:33.99 30:33.99 9:51/M
2 Regina Yoder Goshen IN 2581 58 202 1:35.85 32:09.84 32:09.84 10:22/M
3 Sara Lantzer Goshen IN 2444 57 280 6:35.75 37:09.74 37:09.74 11:59/M
4 Cindy Furkis Ligonier IN 2375 58 320 20:55.45 51:29.44 51:29.44 16:36/M
 

Female 60 to 84

Place Name City Bib No Age Overall Time Back Chip Time Gun Time Pace
1 Alice Shenk Goshen IN 2534 60 219   32:44.36 32:44.36 10:34/M
2 Joan Gary Goshen IN 2386 78 321 18:45.39 51:29.75 51:29.75 16:36/M
 

Male Open Winners

Place Name City Bib No Age Overall Time Back Chip Time Gun Time Pace
1 John Ribeiro Oakland ME 2620 21 1   18:32.10 18:32.10 5:59/M
 

Male 12 and under

Place Name City Bib No Age Overall Time Back Chip Time Gun Time Pace
1 Aj Miller Millersburg IN 2483 12 43   21:26.43 21:26.43 6:55/M
2 Gabe Goertz Goshen IN 2625 12 81 6:07.58 27:34.01 27:34.01 8:54/M
3 Tommy Claxton Goshen IN 2338 10 98 6:31.88 27:58.31 27:58.31 9:01/M
4 William Herschberger Goshen IN 2412 11 138 8:19.06 29:45.49 29:45.49 9:36/M
5 Brock Miller Ligionier IN 2640 12 139 8:19.81 29:46.24 29:46.24 9:36/M
6 Oliver Nisen Leesburg IN 2499 9 191 10:06.05 31:32.48 31:32.48 10:10/M
7 Gavin Miller Goshen IN 2616 11 200 10:32.41 31:58.84 31:58.84 10:19/M
8 Brady Abney Goshen IN 2301 10 236 12:26.67 33:53.10 33:53.10 10:56/M
9 Kevin Mehl Elkhart IN 2482 8 270 14:53.57 36:20.00 36:20.00 11:43/M
10 Matthew Godzisz Elkhart IN 2393 10 288 16:19.41 37:45.84 37:45.84 12:11/M
11 Pierceton Sark New Paris IN 2524 7 291 16:35.18 38:01.61 38:01.61 12:16/M
 

Male 13 to 15

Place Name City Bib No Age Overall Time Back Chip Time Gun Time Pace
1 Trevor Miller Goshen IN 2489 15 18   20:14.60 20:14.60 6:32/M
2 Xander Lerch Ligonier IN 2449 15 28 0:30.93 20:45.53 20:45.53 6:42/M
3 Christopher Sanchez Goshen IN 2522 15 41 1:08.79 21:23.39 21:23.39 6:54/M
4 Anthony Schwartz Shipshewana IN 2530 13 59 5:00.69 25:15.29 25:15.29 8:09/M
5 Dain Wyngarden Bristol IN 2571 15 79 7:18.05 27:32.65 27:32.65 8:53/M
6 Quinten Hunsberger Goshen IN 2427 13 88 7:29.86 27:44.46 27:44.46 8:57/M
7 Cody Maust Millersburg IN 2468 13 113 8:28.22 28:42.82 28:42.82 9:15/M
8 Jordan Jones Nappanee IN 2606 14 133 9:13.16 29:27.76 29:27.76 9:30/M
9 Jadon Camp Goshen IN 2325 13 211 12:13.93 32:28.53 32:28.53 10:28/M
10 Justin Davidson Goshen IN 2350 15 229 13:15.24 33:29.84 33:29.84 10:48/M
11 Austin Lyons Elkhart IN 2457 15 304 21:04.97 41:19.57 41:19.57 13:20/M
12 Andrew Grabill Elkhart IN 2399 13 318 28:20.81 48:35.41 48:35.41 15:40/M
 

Male 16 to 18

Place Name City Bib No Age Overall Time Back Chip Time Gun Time Pace
1 Landon Miller Millersburg IN 2487 16 8   19:25.81 19:25.81 6:16/M
2 Kris Waycaster Elkhart IN 2561 17 11 0:21.03 19:46.84 19:46.84 6:23/M
3 Erik Villegas Goshen IN 2609 17 14 0:36.90 20:02.71 20:02.71 6:28/M
4 Jose Ortiz Goshen IN 2504 18 15 0:38.75 20:04.56 20:04.56 6:28/M
5 Marcus Hershberger Nappanee IN 2414 17 20 0:50.93 20:16.74 20:16.74 6:32/M
6 Garrett McKee Goshen IN 2477 16 25 1:03.40 20:29.21 20:29.21 6:36/M
7 Nate Conder Goshen IN 2340 16 26 1:04.20 20:30.01 20:30.01 6:37/M
8 Salvador Escamilla Elkhart IN 2617 16 29 1:20.64 20:46.45 20:46.45 6:42/M
9 Mason Kintigh Goshen IN 2438 17 32 1:33.67 20:59.48 20:59.48 6:46/M
10 Sergei Culp Goshen, In IN 2605 16 34 1:36.32 21:02.13 21:02.13 6:47/M
11 Lucas Casaletto Goshen IN 2332 16 36 1:40.00 21:05.81 21:05.81 6:48/M
12 Tyler Schwartz Elkhart IN 2531 16 38 1:48.07 21:13.88 21:13.88 6:51/M
13 Spencer Roose Goshen IN 2521 17 39 1:52.76 21:18.57 21:18.57 6:52/M
14 Zachary Oyer Goshen IN 2637 16 48 2:15.93 21:41.74 21:41.74 7:00/M
15 Teagan Stutsman Goshen IN 2551 17 55 3:02.95 22:28.76 22:28.76 7:15/M
16 Zach Fenwick Three Rivers MI 2365 17 60 6:13.11 25:38.92 25:38.92 8:16/M
17 Brenn McKee Goshen IN 2476 18 62 6:52.94 26:18.75 26:18.75 8:29/M
18 Mitch Dewitt New Paris IN 2352 18 80 8:06.90 27:32.71 27:32.71 8:53/M
19 Jordan Dreier Goshen IN 2355 16 83 8:14.06 27:39.87 27:39.87 8:55/M
20 Mitchell Holsopple Millersburg IN 2592 17 104 8:52.37 28:18.18 28:18.18 9:08/M
21 Seth Hoffman New Paris IN 2419 17 105 8:52.38 28:18.19 28:18.19 9:08/M
22 Hugo Madrigal Elkhart IN 2460 16 110 9:08.65 28:34.46 28:34.46 9:13/M
23 Jonathan Maurer Lagrange IN 2467 18 130 9:57.02 29:22.83 29:22.83 9:28/M
24 Jacob Oberlin Millersburg IN 2501 17 136 10:14.34 29:40.15 29:40.15 9:34/M
25 Noah Price Nappanee IN 2511 17 137 10:15.22 29:41.03 29:41.03 9:35/M
26 Lane Galloway Goshen IN 2379 17 142 10:24.86 29:50.67 29:50.67 9:37/M
27 Brodie Long Millersburg IN 2452 17 143 10:30.14 29:55.95 29:55.95 9:39/M
28 Caleb Zentz Goshen IN 2587 16 166 11:12.40 30:38.21 30:38.21 9:53/M
29 Austin Turner Millersburg IN 2556 18 180 11:39.46 31:05.27 31:05.27 10:02/M
30 Bryce Clouse Nappanee IN 2614 16 184 11:51.40 31:17.21 31:17.21 10:05/M
31 Matthew Zentz Goshen IN 2588 18 187 11:58.74 31:24.55 31:24.55 10:08/M
32 Alec Brock Millersburg IN 2318 18 190 12:04.17 31:29.98 31:29.98 10:09/M
33 Luis Ledezma Goshen IN 2445 17 192 12:07.22 31:33.03 31:33.03 10:11/M
34 Clark Carpenter Millersburg IN 2330 17 193 12:11.07 31:36.88 31:36.88 10:12/M
35 Eric Smith Goshen IN 2601 17 230 14:14.59 33:40.40 33:40.40 10:52/M
36 Noah Nisen Goshen IN 2498 16 249 15:06.26 34:32.07 34:32.07 11:08/M
37 Austin Marlow Goshen IN 2462 17 254 15:31.97 34:57.78 34:57.78 11:16/M
38 Logan Berger Nappanee IN 2309 17 256 15:34.33 35:00.14 35:00.14 11:17/M
39 Matthew Williams Goshen IN 2567 18 317 28:53.37 48:19.18 48:19.18 15:35/M
 

Male 19 to 24

Place Name City Bib No Age Overall Time Back Chip Time Gun Time Pace
1 Tyler Wynn Goshen IN 2642 22 2   18:32.40 18:32.40 5:59/M
2 Dillon Hinen West Lafayette IN 2610 21 3 0:00.21 18:32.61 18:32.61 5:59/M
3 David Dalton West Lafayette IN 2621 19 4 0:00.22 18:32.62 18:32.62 5:59/M
4 Alexander Oberlin Millersburg IN 2500 20 24 1:50.85 20:23.25 20:23.25 6:35/M
5 Rolando Alcaraz Goshen IN 2611 20 27 2:03.83 20:36.23 20:36.23 6:39/M
6 Travis Jordan Ligonier IN 2434 20 35 2:30.79 21:03.19 21:03.19 6:47/M
7 Nate Miller Millersburg IN 2488 19 44 2:54.63 21:27.03 21:27.03 6:55/M
8 Trever Yoder Syracuse IN 2585 19 49 3:10.84 21:43.24 21:43.24 7:00/M
9 Marlow Alvarado Elkhart IN 2302 21 54 3:34.24 22:06.64 22:06.64 7:08/M
10 Spencer Culp Nappanee IN 2627 20 70 8:16.03 26:48.43 26:48.43 8:39/M
11 Anthony Bontrager Middlebury IN 2311 22 71 8:22.37 26:54.77 26:54.77 8:41/M
12 Jonas Maurer Lagrange IN 2466 22 77 8:49.07 27:21.47 27:21.47 8:49/M
13 Grant Frye Middlebury KS 2373 19 84 9:08.05 27:40.45 27:40.45 8:55/M
14 Adrian Torres Goshen IN 2607 19 171 12:18.63 30:51.03 30:51.03 9:57/M
15 Johnny Peebles Goshen IN 2507 19 263 17:17.84 35:50.24 35:50.24 11:34/M
 

Male 25 to 29

Place Name City Bib No Age Overall Time Back Chip Time Gun Time Pace
1 Andy Williams Wolcottville IN 2566 27 5   18:44.88 18:44.88 6:03/M
2 Aaron Graber Etna Green IN 2396 26 33 2:15.51 21:00.39 21:00.39 6:46/M
3 Andrew Gray Elkhart IN 2402 25 46 2:46.84 21:31.72 21:31.72 6:56/M
4 Joas Eash New Paris IN 2360 26 50 3:11.56 21:56.44 21:56.44 7:05/M
5 Elmer Schlabach Goshen IN 2527 26 56 3:44.34 22:29.22 22:29.22 7:15/M
6 Gustabo Corral Goshen IN 2648 28 69 7:59.33 26:44.21 26:44.21 8:37/M
7 Floyd Mast Topeka IN 2465 28 89 9:01.14 27:46.02 27:46.02 8:57/M
8 Jason Yoder Middlebury IN 2578 25 102 9:29.10 28:13.98 28:13.98 9:06/M
9 Daniel Chupp New Paris IN 2335 27 126 10:33.35 29:18.23 29:18.23 9:27/M
10 Daniel Schmucker Nappanee IN 2528 28 135 10:49.19 29:34.07 29:34.07 9:32/M
11 Tyler Huser New Paris IN 2633 29 161 11:46.36 30:31.24 30:31.24 9:51/M
12 Brandon Hartzler Middlebury IN 2408 28 174 12:10.43 30:55.31 30:55.31 9:58/M
13 Norman Yoder Topeka IN 2580 25 189 12:44.02 31:28.90 31:28.90 10:09/M
14 Jacob Sonner Goshen IN 2542 29 226 14:20.25 33:05.13 33:05.13 10:40/M
15 Jason Liechty Goshen IN 2450 26 237 15:08.51 33:53.39 33:53.39 10:56/M
16 Jake Daniels Goshen IN 2346 25 253 16:11.99 34:56.87 34:56.87 11:16/M
 

Male 30 to 34

Place Name City Bib No Age Overall Time Back Chip Time Gun Time Pace
1 Atlee Lambright Topeka IN 2439 33 6   19:04.03 19:04.03 6:09/M
2 Mark Davidhizar Elkhart IN 2348 33 19 1:10.78 20:14.81 20:14.81 6:32/M
3 Felix Garcia Goshen IN 2382 33 47 2:36.32 21:40.35 21:40.35 6:59/M
4 Guero Dominguez Goshen IN 2647 34 52 2:55.93 21:59.96 21:59.96 7:05/M
5 Richard Mullet Shipshewana IN 2493 34 53 3:00.86 22:04.89 22:04.89 7:07/M
6 Chris Hoel Goshen IN 2417 30 58 4:34.99 23:39.02 23:39.02 7:38/M
7 Scott Gould Goshen IN 2629 31 76 8:14.95 27:18.98 27:18.98 8:48/M
8 Nathan Choler Elkhart IN 2636 31 100 8:58.79 28:02.82 28:02.82 9:03/M
9 Jeremy Weirich Goshen IN 2564 33 112 9:32.77 28:36.80 28:36.80 9:14/M
10 Eric Uncapher Goshen IN 2598 34 167 11:34.97 30:39.00 30:39.00 9:53/M
11 Miguel Fuentes Ríos Goshen IN 2374 32 210 13:18.24 32:22.27 32:22.27 10:26/M
12 Matthew Wagner Elkhart IN 2558 31 238 14:56.33 34:00.36 34:00.36 10:58/M
13 Bill Mitschelen Nappanee IN 2490 34 247 15:21.78 34:25.81 34:25.81 11:06/M
14 Andrew Sark New Paris IN 2523 31 292 18:57.67 38:01.70 38:01.70 12:16/M
 

Male 35 to 39

Place Name City Bib No Age Overall Time Back Chip Time Gun Time Pace
1 Hermilo Garcia Warsaw IN 2383 39 16   20:06.86 20:06.86 6:29/M
2 Jason Potsander Goshen IN 2510 37 31 0:50.50 20:57.36 20:57.36 6:45/M
3 Juan Cortés Rodriguez Goshen IN 2344 38 42 1:19.09 21:25.95 21:25.95 6:55/M
4 Juan MacHuca Goshen IN 2458 39 61 6:00.72 26:07.58 26:07.58 8:25/M
5 Fermin Cortez Goshen IN 2345 39 72 7:01.68 27:08.54 27:08.54 8:45/M
6 Ignacio Ramirez Elkhart IN 2512 39 90 7:39.28 27:46.14 27:46.14 8:57/M
7 Amos Yoder Goshen IN 2574 35 96 7:48.85 27:55.71 27:55.71 9:00/M
8 Jerry Chupp Goshen IN 2336 38 99 7:54.03 28:00.89 28:00.89 9:02/M
9 Caleb Hunsberger Goshen IN 2426 38 103 8:10.12 28:16.98 28:16.98 9:07/M
10 Enrique Madrid Goshen IN 2459 36 127 9:13.24 29:20.10 29:20.10 9:28/M
11 Scott Shipman Coloma MI 2604 37 129 9:15.42 29:22.28 29:22.28 9:28/M
12 Nathan Johnson Elkhart 2433 38 134 9:21.26 29:28.12 29:28.12 9:30/M
13 Steve Miller Goshen IN 2650 38 144 9:52.29 29:59.15 29:59.15 9:40/M
14 John Eicher Goshen IN 2649 38 149 10:00.16 30:07.02 30:07.02 9:43/M
15 Chuck Osterday Goshen IN 2505 39 170 10:36.71 30:43.57 30:43.57 9:55/M
16 Clint Borntrager Goshen IN 2313 37 217 12:35.87 32:42.73 32:42.73 10:33/M
17 Jeffrey Gorball Goshen IN 2395 37 222 12:45.59 32:52.45 32:52.45 10:36/M
18 Anthony Mast Millersburg IN 2463 38 266 15:45.90 35:52.76 35:52.76 11:34/M
19 Lonnie Camp Goshen IN 2327 38 307 22:14.59 42:21.45 42:21.45 13:40/M
20 Matthew Datema Goshen IN 2347 37 316 25:51.89 45:58.75 45:58.75 14:50/M
 

Male 40 to 44

Place Name City Bib No Age Overall Time Back Chip Time Gun Time Pace
1 Peter Casaletto Goshen IN 2333 44 7   19:06.67 19:06.67 6:10/M
2 Dennie Welch Gurnee IL 2641 40 10 0:25.32 19:31.99 19:31.99 6:18/M
3 Jason Veenstra Syracuse IN 2557 40 12 0:44.15 19:50.82 19:50.82 6:24/M
4 Israel Stark Goshen IN 2545 41 57 3:26.34 22:33.01 22:33.01 7:16/M
5 Steve Freeto Elkhart IN 2372 40 63 7:13.44 26:20.11 26:20.11 8:30/M
6 Jerry Brown Goshen IN 2320 40 65 7:15.20 26:21.87 26:21.87 8:30/M
7 Alvaro Romero Elkhart IN 2593 44 66 7:25.85 26:32.52 26:32.52 8:34/M
8 Keith Yoder Syracuse IN 2579 40 75 8:09.92 27:16.59 27:16.59 8:48/M
9 Shane Hernley Goshen IN 2410 41 82 8:30.68 27:37.35 27:37.35 8:55/M
10 Bart Templeton Goshen IN 2552 42 117 9:43.18 28:49.85 28:49.85 9:18/M
11 Jason Harper Goshen IN 2406 43 123 10:04.11 29:10.78 29:10.78 9:25/M
12 Adam Calfee Middlebury IN 2324 41 146 10:54.19 30:00.86 30:00.86 9:41/M
13 Anthony Clouse Nappanee IN 2613 43 183 12:10.32 31:16.99 31:16.99 10:05/M
14 Dan McEachern Elkhart IN 2471 41 251 15:34.69 34:41.36 34:41.36 11:11/M
15 Carl Schatz South Bend IN 2526 41 262 16:21.92 35:28.59 35:28.59 11:26/M
16 Scott Perry Goshen IN 2509 44 282 18:13.27 37:19.94 37:19.94 12:02/M
17 Kevin Jaberg Millersburg IN 2429 40 294 19:14.93 38:21.60 38:21.60 12:22/M
18 Mark Grabill Elkhart IN 2400 42 319 29:29.21 48:35.88 48:35.88 15:40/M
 

Male 45 to 49

Place Name City Bib No Age Overall Time Back Chip Time Gun Time Pace
1 Todd Hoffer Etna Green IN 2418 48 13   19:56.72 19:56.72 6:26/M
2 Scott V. Smith Fort Lauderdale FL 2541 48 23 0:25.92 20:22.64 20:22.64 6:34/M
3 Ruben Flores Winona Lake IN 2371 45 51 2:00.15 21:56.87 21:56.87 7:05/M
4 Chris Judson Goshen IN 2435 48 64 6:24.35 26:21.07 26:21.07 8:30/M
5 Gregg Lee Elkhart IN 2447 47 74 7:17.58 27:14.30 27:14.30 8:47/M
6 Devon Miller Millersburg IN 2484 45 87 7:46.05 27:42.77 27:42.77 8:56/M
7 Brendon Cawood Middlebury IN 2652 46 97 8:00.14 27:56.86 27:56.86 9:01/M
8 Doug Brown Goshen IN 2319 46 148 10:06.21 30:02.93 30:02.93 9:41/M
9 Tim Yoder Elkhart IN 2583 49 182 11:12.23 31:08.95 31:08.95 10:03/M
10 Randy Reese Goshen IN 2635 45 241 14:21.74 34:18.46 34:18.46 11:04/M
 

Male 50 to 54

Place Name City Bib No Age Overall Time Back Chip Time Gun Time Pace
1 David Dodd South Bend IN 2353 53 30   20:52.81 20:52.81 6:44/M
2 Bryan Heinz Goshen IN 2619 53 73 6:17.30 27:10.11 27:10.11 8:46/M
3 Mike Cleveland Wakarusa IN 2339 50 91 6:54.08 27:46.89 27:46.89 8:57/M
4 George Hofsommer Middlebury IN 2420 54 93 6:58.74 27:51.55 27:51.55 8:59/M
5 Allen Robinson Goshen IN 2608 50 108 7:38.61 28:31.42 28:31.42 9:12/M
6 Ron Landis Elkhart IN 2442 51 194 10:45.42 31:38.23 31:38.23 10:12/M
7 Todd Olson Lakeview MI 2503 52 214 11:46.28 32:39.09 32:39.09 10:32/M
8 Steven Armstrong Syracuse IN 2638 51 225 12:10.85 33:03.66 33:03.66 10:40/M
9 Leonard Hinkson White Pigeon MI 2416 51 267 15:01.96 35:54.77 35:54.77 11:35/M
10 Kent Holdren Goshen IN 2421 53 275 15:35.37 36:28.18 36:28.18 11:46/M
11 Tom Yoder Elkhart IN 2584 53 313 24:54.76 45:47.57 45:47.57 14:46/M
 

Male 55 to 59

Place Name City Bib No Age Overall Time Back Chip Time Gun Time Pace
1 Mark Furkis Ligonier IN 2376 59 9   19:27.09 19:27.09 6:16/M
2 Ruben Falcon Goshen IN 2363 55 78 8:00.06 27:27.15 27:27.15 8:51/M
3 Delbert Yoder Goshen IN 2576 59 92 8:20.16 27:47.25 27:47.25 8:58/M
4 Brian Turco Elkhart IN 2555 55 94 8:25.45 27:52.54 27:52.54 8:59/M
5 Dean Warstler Syracuse IN 2559 59 101 8:41.08 28:08.17 28:08.17 9:05/M
6 Mark Riege Wakarusa IN 2517 55 160 10:57.44 30:24.53 30:24.53 9:48/M
7 Kent Lung New Paris IN 2456 57 162 11:05.72 30:32.81 30:32.81 9:51/M
8 Andrew Williams Bristol IN 2600 57 176 11:29.89 30:56.98 30:56.98 9:59/M
9 Steve Chamness Elkhart IN 2334 57 221 13:20.76 32:47.85 32:47.85 10:35/M
10 Sam Glick Elkhart IN 2390 58 279 17:41.20 37:08.29 37:08.29 11:59/M
11 Geffery Fisher Bristol IN 2368 57 299 19:30.59 38:57.68 38:57.68 12:34/M
12 Mark Zak Goshen IN 2586 56 310 24:25.26 43:52.35 43:52.35 14:09/M
 

Male 60 to 84

Place Name City Bib No Age Overall Time Back Chip Time Gun Time Pace
1 Jeff Lantzer Goshen IN 2443 60 124   29:11.21 29:11.21 9:25/M
2 Ivor Niggebrugge Mishawaka IN 2495 61 131 0:12.79 29:24.00 29:24.00 9:29/M
3 Kent Stucky Goshen IN 2548 63 140 0:35.61 29:46.82 29:46.82 9:36/M
4 Steve Flora New Paris IN 2370 61 147 0:51.33 30:02.54 30:02.54 9:41/M
5 Ruperto Hernandez Elkhart IN 2612 67 152 0:57.25 30:08.46 30:08.46 9:43/M
6 Arden Graber Etna Green IN 2397 65 153 0:59.00 30:10.21 30:10.21 9:44/M
7 Gary Miller Shipshewana IN 2622 61 168 1:28.97 30:40.18 30:40.18 9:54/M
8 Bob Glick Goshen IN 2389 63 201 2:48.98 32:00.19 32:00.19 10:19/M
9 Jim Bare Goshen IN 2306 73 204 3:00.59 32:11.80 32:11.80 10:23/M
10 John Morse Goshen IN 2644 64 224 3:46.89 32:58.10 32:58.10 10:38/M
11 Dan Blucker Goshen IN 2310 62 235 4:39.38 33:50.59 33:50.59 10:55/M
12 Joe Dervin Goshen IN 2351 71 240 5:04.45 34:15.66 34:15.66 11:03/M
13 Dave Ferency South Bend IN 2366 71 258 6:11.48 35:22.69 35:22.69 11:25/M
14 Freeman Hershberger Goshen IN 2413 77 300 10:15.93 39:27.14 39:27.14 12:44/M
15 Lawrence Scholl Goshen IN 2529 82 315 16:37.96 45:49.17 45:49.17 14:47/M